sensor_id;sensor_type;location;lat;lon;timestamp;temperature;humidity
58933;DHT22;44716;51.022;6.818;2022-08-21T17:16:30;27.80;46.00
58933;DHT22;44716;51.022;6.818;2022-08-21T17:18:56;27.70;41.20
58933;DHT22;44716;51.022;6.818;2022-08-21T17:21:22;27.70;40.40
58933;DHT22;44716;51.022;6.818;2022-08-21T17:23:47;27.70;41.10
58933;DHT22;44716;51.022;6.818;2022-08-21T17:26:13;27.80;39.90
58933;DHT22;44716;51.022;6.818;2022-08-21T17:28:40;27.70;40.10
58933;DHT22;44716;51.022;6.818;2022-08-21T17:31:06;27.70;39.70
58933;DHT22;44716;51.022;6.818;2022-08-21T17:33:36;27.80;40.00
58933;DHT22;44716;51.022;6.818;2022-08-21T17:36:03;27.80;39.80
58933;DHT22;44716;51.022;6.818;2022-08-21T17:38:29;27.80;39.10
58933;DHT22;44716;51.022;6.818;2022-08-21T17:40:55;27.90;40.00
58933;DHT22;44716;51.022;6.818;2022-08-21T17:43:22;27.90;40.00
58933;DHT22;44716;51.022;6.818;2022-08-21T17:45:47;27.90;40.00
58933;DHT22;44716;51.022;6.818;2022-08-21T17:48:13;27.90;39.70
58933;DHT22;44716;51.022;6.818;2022-08-21T17:50:38;27.90;39.90
58933;DHT22;44716;51.022;6.818;2022-08-21T17:53:04;27.90;39.80
58933;DHT22;44716;51.022;6.818;2022-08-21T17:55:30;28.00;40.20
58933;DHT22;44716;51.022;6.818;2022-08-21T17:57:55;28.00;40.00
58933;DHT22;44716;51.022;6.818;2022-08-21T18:00:22;28.00;39.10
58933;DHT22;44716;51.022;6.818;2022-08-21T18:02:50;28.00;38.80
58933;DHT22;44716;51.022;6.818;2022-08-21T18:05:20;27.50;38.10
58933;DHT22;44716;51.022;6.818;2022-08-21T18:07:46;27.30;38.30
58933;DHT22;44716;51.022;6.818;2022-08-21T18:10:12;27.20;38.50
58933;DHT22;44716;51.022;6.818;2022-08-21T18:12:38;26.80;38.60
58933;DHT22;44716;51.022;6.818;2022-08-21T18:15:05;26.80;39.10
58933;DHT22;44716;51.022;6.818;2022-08-21T18:17:31;26.90;39.10
58933;DHT22;44716;51.022;6.818;2022-08-21T18:19:58;26.90;39.30
58933;DHT22;44716;51.022;6.818;2022-08-21T18:22:24;26.90;39.40
58933;DHT22;44716;51.022;6.818;2022-08-21T18:24:50;26.80;39.50
58933;DHT22;44716;51.022;6.818;2022-08-21T18:27:15;26.80;39.60
58933;DHT22;44716;51.022;6.818;2022-08-21T18:29:41;26.80;39.70
58933;DHT22;44716;51.022;6.818;2022-08-21T18:32:08;26.70;39.90
58933;DHT22;44716;51.022;6.818;2022-08-21T18:34:36;26.60;40.10
58933;DHT22;44716;51.022;6.818;2022-08-21T18:37:03;26.70;40.70
58933;DHT22;44716;51.022;6.818;2022-08-21T18:39:29;26.70;40.90
58933;DHT22;44716;51.022;6.818;2022-08-21T18:41:55;26.80;40.80
58933;DHT22;44716;51.022;6.818;2022-08-21T18:44:22;26.70;41.10
58933;DHT22;44716;51.022;6.818;2022-08-21T18:47:02;26.70;41.30
58933;DHT22;44716;51.022;6.818;2022-08-21T18:49:29;26.80;40.90
58933;DHT22;44716;51.022;6.818;2022-08-21T18:51:55;26.70;41.10
58933;DHT22;44716;51.022;6.818;2022-08-21T18:54:21;26.70;40.80
58933;DHT22;44716;51.022;6.818;2022-08-21T18:56:47;26.60;40.90
58933;DHT22;44716;51.022;6.818;2022-08-21T18:59:13;26.60;40.80
58933;DHT22;44716;51.022;6.818;2022-08-21T19:01:39;26.60;40.70
58933;DHT22;44716;51.022;6.818;2022-08-21T19:04:05;26.70;40.80
58933;DHT22;44716;51.022;6.818;2022-08-21T19:06:31;26.60;40.70
58933;DHT22;44716;51.022;6.818;2022-08-21T19:08:57;26.60;41.20
58933;DHT22;44716;51.022;6.818;2022-08-21T19:11:25;26.60;41.00
58933;DHT22;44716;51.022;6.818;2022-08-21T19:13:52;26.60;41.00
58933;DHT22;44716;51.022;6.818;2022-08-21T19:16:18;26.60;41.10
58933;DHT22;44716;51.022;6.818;2022-08-21T19:18:44;26.40;41.30
58933;DHT22;44716;51.022;6.818;2022-08-21T19:21:10;26.30;41.50
58933;DHT22;44716;51.022;6.818;2022-08-21T19:23:36;26.40;41.50
58933;DHT22;44716;51.022;6.818;2022-08-21T19:26:02;26.40;41.30
58933;DHT22;44716;51.022;6.818;2022-08-21T19:28:33;26.40;41.50
58933;DHT22;44716;51.022;6.818;2022-08-21T19:31:11;26.50;41.90
58933;DHT22;44716;51.022;6.818;2022-08-21T19:33:38;26.50;41.50
58933;DHT22;44716;51.022;6.818;2022-08-21T19:36:05;26.50;41.40
58933;DHT22;44716;51.022;6.818;2022-08-21T19:38:31;26.60;41.50
58933;DHT22;44716;51.022;6.818;2022-08-21T19:40:57;26.60;41.40
58933;DHT22;44716;51.022;6.818;2022-08-21T19:43:23;26.70;41.70
58933;DHT22;44716;51.022;6.818;2022-08-21T19:45:49;26.60;41.60
58933;DHT22;44716;51.022;6.818;2022-08-21T19:48:15;26.50;42.70
58933;DHT22;44716;51.022;6.818;2022-08-21T19:50:41;26.50;42.70
58933;DHT22;44716;51.022;6.818;2022-08-21T19:53:07;26.60;42.90
58933;DHT22;44716;51.022;6.818;2022-08-21T19:55:33;26.70;42.60
58933;DHT22;44716;51.022;6.818;2022-08-21T19:57:59;26.70;42.20
58933;DHT22;44716;51.022;6.818;2022-08-21T20:00:25;26.70;42.40
58933;DHT22;44716;51.022;6.818;2022-08-21T20:02:51;26.70;42.80
58933;DHT22;44716;51.022;6.818;2022-08-21T20:05:16;26.70;42.80
58933;DHT22;44716;51.022;6.818;2022-08-21T20:07:42;26.80;42.70
58933;DHT22;44716;51.022;6.818;2022-08-21T20:10:07;26.80;42.20
58933;DHT22;44716;51.022;6.818;2022-08-21T20:12:33;26.70;41.80
58933;DHT22;44716;51.022;6.818;2022-08-21T20:14:59;26.70;41.70
58933;DHT22;44716;51.022;6.818;2022-08-21T20:17:24;26.70;41.90
58933;DHT22;44716;51.022;6.818;2022-08-21T20:19:50;26.70;42.20
58933;DHT22;44716;51.022;6.818;2022-08-21T20:22:16;26.60;42.70
58933;DHT22;44716;51.022;6.818;2022-08-21T20:24:41;26.60;42.80
58933;DHT22;44716;51.022;6.818;2022-08-21T20:27:08;26.70;42.80
58933;DHT22;44716;51.022;6.818;2022-08-21T20:29:34;26.70;42.40
58933;DHT22;44716;51.022;6.818;2022-08-21T20:32:00;26.70;42.40
58933;DHT22;44716;51.022;6.818;2022-08-21T20:34:29;26.70;42.30
58933;DHT22;44716;51.022;6.818;2022-08-21T20:36:54;26.70;42.10
58933;DHT22;44716;51.022;6.818;2022-08-21T20:39:20;26.60;42.10
58933;DHT22;44716;51.022;6.818;2022-08-21T20:41:46;26.60;42.80
58933;DHT22;44716;51.022;6.818;2022-08-21T20:44:13;26.60;42.90
58933;DHT22;44716;51.022;6.818;2022-08-21T20:46:39;26.60;43.00
58933;DHT22;44716;51.022;6.818;2022-08-21T20:49:05;26.70;42.80
58933;DHT22;44716;51.022;6.818;2022-08-21T20:51:35;26.70;42.60
58933;DHT22;44716;51.022;6.818;2022-08-21T21:01:42;26.60;42.30
58933;DHT22;44716;51.022;6.818;2022-08-21T21:04:09;26.60;42.20
58933;DHT22;44716;51.022;6.818;2022-08-21T21:06:38;26.60;42.20
58933;DHT22;44716;51.022;6.818;2022-08-21T21:09:06;26.60;42.30
58933;DHT22;44716;51.022;6.818;2022-08-21T21:11:34;26.60;42.70
58933;DHT22;44716;51.022;6.818;2022-08-21T21:14:02;26.70;42.80
58933;DHT22;44716;51.022;6.818;2022-08-21T21:16:31;26.70;42.50
58933;DHT22;44716;51.022;6.818;2022-08-21T21:19:02;26.70;42.70
58933;DHT22;44716;51.022;6.818;2022-08-21T21:21:30;26.60;42.40
58933;DHT22;44716;51.022;6.818;2022-08-21T21:26:42;26.60;42.50
